VCP685 EGNX-EBLG
Flight info
| Callsign | VCP685 |
|---|---|
| Flight time | 0h 58m |
| Altitude | 29000 |
| Route | SAPCO Y53 DTY M605 SILVA UM605 BENSU Q70 KOK |
| Aircraft | A320/M-SDE3FGHIRWY/LB1 |
Departure
| Time | 2026-04-23 10:42 |
|---|---|
| Airport | East Midlands Airport (EGNX) |
Arrival
| Time | 2026-04-23 11:41 |
|---|---|
| Airport | Liège Airport (EBLG) |
| Time | Latitude | Longitude | Altitude | Speed | Heading |
|---|---|---|---|---|---|
| 2026-04-23 10:10 | 52.82731 | -1.33496 | 301 ft | 0 kts | 88° |
| 2026-04-23 10:30 | 52.82730 | -1.33521 | 302 ft | 2 kts | 88° |
| 2026-04-23 10:30 | 52.82730 | -1.33549 | 300 ft | 2 kts | 88° |
| 2026-04-23 10:31 | 52.82725 | -1.33576 | 300 ft | 2 kts | 58° |
| 2026-04-23 10:31 | 52.82713 | -1.33593 | 302 ft | 2 kts | 348° |
| 2026-04-23 10:31 | 52.82705 | -1.33589 | 301 ft | 0 kts | 338° |
| 2026-04-23 10:35 | 52.82706 | -1.33590 | 301 ft | 2 kts | 338° |
| 2026-04-23 10:36 | 52.82738 | -1.33601 | 314 ft | 6 kts | 348° |
| 2026-04-23 10:36 | 52.82790 | -1.33606 | 303 ft | 9 kts | 358° |
| 2026-04-23 10:36 | 52.82862 | -1.33609 | 303 ft | 12 kts | 359° |
| 2026-04-23 10:36 | 52.82918 | -1.33652 | 305 ft | 9 kts | 290° |
| 2026-04-23 10:37 | 52.82915 | -1.33754 | 307 ft | 9 kts | 265° |
| 2026-04-23 10:37 | 52.82912 | -1.33871 | 305 ft | 11 kts | 268° |
| 2026-04-23 10:37 | 52.82909 | -1.34019 | 302 ft | 15 kts | 268° |
| 2026-04-23 10:37 | 52.82907 | -1.34218 | 301 ft | 18 kts | 269° |
| 2026-04-23 10:38 | 52.82907 | -1.34407 | 305 ft | 14 kts | 266° |
| 2026-04-23 10:38 | 52.82905 | -1.34588 | 304 ft | 16 kts | 269° |
| 2026-04-23 10:38 | 52.82903 | -1.34744 | 306 ft | 11 kts | 268° |
| 2026-04-23 10:38 | 52.82901 | -1.34862 | 306 ft | 10 kts | 269° |
| 2026-04-23 10:39 | 52.82921 | -1.34931 | 305 ft | 5 kts | 334° |
| 2026-04-23 10:39 | 52.82943 | -1.34935 | 306 ft | 0 kts | 360° |
| 2026-04-23 10:40 | 52.82948 | -1.34935 | 305 ft | 2 kts | 360° |
| 2026-04-23 10:41 | 52.82998 | -1.34935 | 305 ft | 13 kts | 0° |
| 2026-04-23 10:41 | 52.83064 | -1.34871 | 304 ft | 13 kts | 78° |
| 2026-04-23 10:41 | 52.83069 | -1.34586 | 302 ft | 52 kts | 88° |
| 2026-04-23 10:41 | 52.83086 | -1.33624 | 309 ft | 111 kts | 88° |
| 2026-04-23 10:42 | 52.83116 | -1.32088 | 331 ft | 152 kts | 87° |
| 2026-04-23 10:42 | 52.83179 | -1.30342 | 958 ft | 149 kts | 84° |
| 2026-04-23 10:42 | 52.83159 | -1.28654 | 1637 ft | 149 kts | 95° |
| 2026-04-23 10:42 | 52.83041 | -1.26926 | 2234 ft | 156 kts | 97° |
| 2026-04-23 10:43 | 52.82898 | -1.25028 | 2493 ft | 178 kts | 100° |
| 2026-04-23 10:43 | 52.82433 | -1.22983 | 2785 ft | 204 kts | 121° |
| 2026-04-23 10:43 | 52.81451 | -1.21102 | 3219 ft | 229 kts | 134° |
| 2026-04-23 10:43 | 52.80686 | -1.19822 | 3564 ft | 241 kts | 134° |
| 2026-04-23 10:44 | 52.79500 | -1.17799 | 4409 ft | 248 kts | 134° |
| 2026-04-23 10:44 | 52.78295 | -1.15735 | 5302 ft | 252 kts | 136° |
| 2026-04-23 10:44 | 52.76780 | -1.14271 | 6062 ft | 259 kts | 167° |
| 2026-04-23 10:44 | 52.74984 | -1.14546 | 6929 ft | 268 kts | 200° |
| 2026-04-23 10:45 | 52.73372 | -1.16180 | 7644 ft | 276 kts | 216° |
| 2026-04-23 10:45 | 52.71933 | -1.18308 | 8482 ft | 280 kts | 221° |
| 2026-04-23 10:45 | 52.70529 | -1.20566 | 9329 ft | 283 kts | 221° |
| 2026-04-23 10:45 | 52.69092 | -1.22812 | 10196 ft | 285 kts | 220° |
| 2026-04-23 10:46 | 52.67597 | -1.25021 | 10730 ft | 298 kts | 218° |
| 2026-04-23 10:46 | 52.65961 | -1.27306 | 10927 ft | 321 kts | 218° |
| 2026-04-23 10:46 | 52.64162 | -1.29713 | 11076 ft | 344 kts | 217° |
| 2026-04-23 10:46 | 52.62262 | -1.32191 | 11326 ft | 360 kts | 216° |
| 2026-04-23 10:47 | 52.60234 | -1.34754 | 11881 ft | 365 kts | 212° |
| 2026-04-23 10:47 | 52.57941 | -1.36398 | 12419 ft | 368 kts | 190° |
| 2026-04-23 10:47 | 52.55395 | -1.36419 | 13055 ft | 369 kts | 168° |
| 2026-04-23 10:47 | 52.52959 | -1.35037 | 13694 ft | 371 kts | 158° |
| 2026-04-23 10:48 | 52.50570 | -1.33425 | 14402 ft | 372 kts | 157° |
| 2026-04-23 10:48 | 52.48179 | -1.31771 | 14969 ft | 375 kts | 156° |
| 2026-04-23 10:48 | 52.45751 | -1.30087 | 15463 ft | 380 kts | 156° |
| 2026-04-23 10:48 | 52.43295 | -1.28393 | 15955 ft | 385 kts | 156° |
| 2026-04-23 10:49 | 52.40806 | -1.26695 | 16499 ft | 390 kts | 157° |
| 2026-04-23 10:49 | 52.38285 | -1.24989 | 17027 ft | 393 kts | 156° |
| 2026-04-23 10:49 | 52.35748 | -1.23278 | 17546 ft | 397 kts | 157° |
| 2026-04-23 10:49 | 52.33174 | -1.21540 | 18033 ft | 402 kts | 156° |
| 2026-04-23 10:50 | 52.30581 | -1.19793 | 18557 ft | 405 kts | 156° |
| 2026-04-23 10:50 | 52.27956 | -1.18027 | 19045 ft | 410 kts | 157° |
| 2026-04-23 10:50 | 52.25305 | -1.16252 | 19477 ft | 414 kts | 156° |
| 2026-04-23 10:50 | 52.22629 | -1.14460 | 19896 ft | 419 kts | 156° |
| 2026-04-23 10:51 | 52.19920 | -1.12649 | 20338 ft | 422 kts | 156° |
| 2026-04-23 10:51 | 52.17118 | -1.11104 | 20737 ft | 429 kts | 165° |
| 2026-04-23 10:51 | 52.14178 | -1.10107 | 21122 ft | 434 kts | 167° |
| 2026-04-23 10:51 | 52.11201 | -1.09136 | 21578 ft | 437 kts | 167° |
| 2026-04-23 10:52 | 52.08210 | -1.08154 | 21968 ft | 440 kts | 167° |
| 2026-04-23 10:52 | 52.05195 | -1.07164 | 22382 ft | 443 kts | 167° |
| 2026-04-23 10:52 | 52.02160 | -1.06174 | 22711 ft | 447 kts | 167° |
| 2026-04-23 10:52 | 51.99100 | -1.05178 | 23065 ft | 450 kts | 167° |
| 2026-04-23 10:53 | 51.96057 | -1.04186 | 23427 ft | 453 kts | 167° |
| 2026-04-23 10:53 | 51.92954 | -1.03173 | 23788 ft | 457 kts | 167° |
| 2026-04-23 10:53 | 51.89819 | -1.02152 | 24119 ft | 460 kts | 167° |
| 2026-04-23 10:53 | 51.86667 | -1.01131 | 24422 ft | 463 kts | 168° |
| 2026-04-23 10:54 | 51.83487 | -1.00104 | 24738 ft | 466 kts | 168° |
| 2026-04-23 10:54 | 51.80301 | -0.99078 | 25059 ft | 468 kts | 168° |
| 2026-04-23 10:54 | 51.77087 | -0.98049 | 25345 ft | 472 kts | 168° |
| 2026-04-23 10:54 | 51.73858 | -0.97016 | 25638 ft | 475 kts | 168° |
| 2026-04-23 10:55 | 51.70606 | -0.95978 | 25983 ft | 477 kts | 168° |
| 2026-04-23 10:55 | 51.67345 | -0.94928 | 26308 ft | 479 kts | 166° |
| 2026-04-23 10:55 | 51.64172 | -0.93379 | 26714 ft | 476 kts | 156° |
| 2026-04-23 10:55 | 51.61230 | -0.90941 | 27125 ft | 473 kts | 144° |
| 2026-04-23 10:56 | 51.58643 | -0.87715 | 27532 ft | 470 kts | 134° |
| 2026-04-23 10:56 | 51.56473 | -0.83820 | 27934 ft | 466 kts | 123° |
| 2026-04-23 10:56 | 51.54771 | -0.79418 | 28302 ft | 463 kts | 112° |
| 2026-04-23 10:56 | 51.53512 | -0.74731 | 28689 ft | 461 kts | 108° |
| 2026-04-23 10:57 | 51.52295 | -0.69963 | 29108 ft | 462 kts | 108° |
| 2026-04-23 10:57 | 51.51064 | -0.65184 | 29414 ft | 463 kts | 108° |
| 2026-04-23 10:57 | 51.48557 | -0.55496 | 29462 ft | 475 kts | 109° |
| 2026-04-23 10:58 | 51.46011 | -0.45670 | 29463 ft | 477 kts | 109° |
| 2026-04-23 10:58 | 51.43449 | -0.35824 | 29464 ft | 478 kts | 109° |
| 2026-04-23 10:59 | 51.40879 | -0.26014 | 29462 ft | 478 kts | 109° |
| 2026-04-23 10:59 | 51.38301 | -0.16203 | 29462 ft | 478 kts | 109° |
| 2026-04-23 11:00 | 51.35711 | -0.06389 | 29461 ft | 478 kts | 109° |
| 2026-04-23 11:00 | 51.33409 | 0.03532 | 29503 ft | 472 kts | 99° |
| 2026-04-23 11:01 | 51.32621 | 0.13847 | 29514 ft | 465 kts | 90° |
| 2026-04-23 11:01 | 51.32151 | 0.24092 | 29520 ft | 464 kts | 90° |
| 2026-04-23 11:02 | 51.31660 | 0.34384 | 29521 ft | 464 kts | 90° |
| 2026-04-23 11:02 | 51.31156 | 0.44662 | 29520 ft | 464 kts | 90° |
| 2026-04-23 11:03 | 51.30649 | 0.54934 | 29539 ft | 462 kts | 92° |
| 2026-04-23 11:03 | 51.30167 | 0.65142 | 29529 ft | 459 kts | 91° |
| 2026-04-23 11:04 | 51.29805 | 0.75331 | 29512 ft | 458 kts | 90° |
| 2026-04-23 11:04 | 51.29478 | 0.85477 | 29497 ft | 457 kts | 91° |
| 2026-04-23 11:05 | 51.29112 | 0.95598 | 29486 ft | 456 kts | 91° |
| 2026-04-23 11:05 | 51.28719 | 1.05553 | 29464 ft | 446 kts | 94° |
| 2026-04-23 11:06 | 51.28131 | 1.20349 | 29457 ft | 445 kts | 94° |
| 2026-04-23 11:07 | 51.27733 | 1.30187 | 29461 ft | 444 kts | 94° |
| 2026-04-23 11:07 | 51.27324 | 1.40027 | 29478 ft | 443 kts | 94° |
| 2026-04-23 11:08 | 51.26901 | 1.49844 | 29469 ft | 442 kts | 95° |
| 2026-04-23 11:08 | 51.26485 | 1.59632 | 29482 ft | 441 kts | 95° |
| 2026-04-23 11:09 | 51.26061 | 1.69417 | 29483 ft | 441 kts | 95° |
| 2026-04-23 11:09 | 51.25617 | 1.79174 | 29477 ft | 441 kts | 96° |
| 2026-04-23 11:10 | 51.25168 | 1.88921 | 29470 ft | 440 kts | 96° |
| 2026-04-23 11:10 | 51.24718 | 1.98591 | 29485 ft | 438 kts | 97° |
| 2026-04-23 11:11 | 51.24263 | 2.08271 | 29493 ft | 436 kts | 97° |
| 2026-04-23 11:11 | 51.23803 | 2.17904 | 29495 ft | 434 kts | 97° |
| 2026-04-23 11:12 | 51.23336 | 2.27492 | 29486 ft | 433 kts | 97° |
| 2026-04-23 11:12 | 51.22530 | 2.36972 | 29485 ft | 429 kts | 108° |
| 2026-04-23 11:13 | 51.20014 | 2.45465 | 29481 ft | 422 kts | 126° |
| 2026-04-23 11:13 | 51.16261 | 2.52636 | 29485 ft | 420 kts | 131° |
| 2026-04-23 11:14 | 51.12451 | 2.59674 | 29479 ft | 420 kts | 131° |
| 2026-04-23 11:14 | 51.09363 | 2.67459 | 29477 ft | 422 kts | 114° |
| 2026-04-23 11:15 | 51.07785 | 2.76491 | 29473 ft | 425 kts | 106° |
| 2026-04-23 11:15 | 51.06403 | 2.85632 | 29452 ft | 425 kts | 106° |
| 2026-04-23 11:16 | 51.04999 | 2.94756 | 29458 ft | 425 kts | 107° |
| 2026-04-23 11:16 | 51.03591 | 3.03880 | 29458 ft | 425 kts | 107° |
| 2026-04-23 11:17 | 51.02181 | 3.12992 | 29456 ft | 424 kts | 107° |
| 2026-04-23 11:17 | 51.00770 | 3.22089 | 29446 ft | 424 kts | 107° |
| 2026-04-23 11:18 | 50.99355 | 3.31184 | 29431 ft | 424 kts | 106° |
| 2026-04-23 11:18 | 50.97932 | 3.40276 | 29428 ft | 424 kts | 106° |
| 2026-04-23 11:19 | 50.96497 | 3.49377 | 29431 ft | 425 kts | 106° |
| 2026-04-23 11:19 | 50.95116 | 3.58483 | 29430 ft | 425 kts | 105° |
| 2026-04-23 11:20 | 50.93780 | 3.67566 | 29430 ft | 425 kts | 105° |
| 2026-04-23 11:20 | 50.92428 | 3.76694 | 29422 ft | 425 kts | 105° |
| 2026-04-23 11:21 | 50.91054 | 3.85824 | 29420 ft | 425 kts | 105° |
| 2026-04-23 11:21 | 50.89665 | 3.94934 | 29427 ft | 426 kts | 105° |
| 2026-04-23 11:22 | 50.88271 | 4.04043 | 29441 ft | 426 kts | 105° |
| 2026-04-23 11:22 | 50.86874 | 4.13132 | 29086 ft | 427 kts | 105° |
| 2026-04-23 11:22 | 50.86169 | 4.17703 | 28812 ft | 428 kts | 105° |
| 2026-04-23 11:23 | 50.85462 | 4.22265 | 28139 ft | 428 kts | 105° |
| 2026-04-23 11:23 | 50.84747 | 4.26876 | 27000 ft | 433 kts | 105° |
| 2026-04-23 11:23 | 50.84027 | 4.31520 | 25873 ft | 438 kts | 105° |
| 2026-04-23 11:23 | 50.83294 | 4.36219 | 24764 ft | 442 kts | 105° |
| 2026-04-23 11:24 | 50.82552 | 4.40959 | 23678 ft | 445 kts | 105° |
| 2026-04-23 11:24 | 50.81809 | 4.45700 | 22799 ft | 440 kts | 105° |
| 2026-04-23 11:24 | 50.81074 | 4.50382 | 21956 ft | 436 kts | 105° |
| 2026-04-23 11:24 | 50.80346 | 4.55015 | 21102 ft | 433 kts | 105° |
| 2026-04-23 11:25 | 50.79621 | 4.59616 | 20256 ft | 430 kts | 105° |
| 2026-04-23 11:25 | 50.78898 | 4.64177 | 19425 ft | 427 kts | 105° |
| 2026-04-23 11:25 | 50.78178 | 4.68715 | 18566 ft | 424 kts | 104° |
| 2026-04-23 11:25 | 50.77463 | 4.73213 | 17670 ft | 420 kts | 104° |
| 2026-04-23 11:26 | 50.76752 | 4.77670 | 16863 ft | 415 kts | 104° |
| 2026-04-23 11:26 | 50.76055 | 4.82020 | 16051 ft | 412 kts | 104° |
| 2026-04-23 11:26 | 50.75355 | 4.86379 | 15289 ft | 409 kts | 104° |
| 2026-04-23 11:26 | 50.74655 | 4.90718 | 14524 ft | 406 kts | 103° |
| 2026-04-23 11:27 | 50.73957 | 4.95023 | 13758 ft | 404 kts | 103° |
| 2026-04-23 11:27 | 50.73260 | 4.99293 | 13053 ft | 399 kts | 103° |
| 2026-04-23 11:27 | 50.72570 | 5.03516 | 12360 ft | 394 kts | 103° |
| 2026-04-23 11:27 | 50.71889 | 5.07680 | 11750 ft | 388 kts | 103° |
| 2026-04-23 11:28 | 50.71231 | 5.11699 | 11621 ft | 368 kts | 103° |
| 2026-04-23 11:28 | 50.70814 | 5.14239 | 11533 ft | 356 kts | 103° |
| 2026-04-23 11:28 | 50.70208 | 5.17933 | 11408 ft | 340 kts | 103° |
| 2026-04-23 11:28 | 50.69630 | 5.21475 | 11288 ft | 326 kts | 102° |
| 2026-04-23 11:29 | 50.69075 | 5.24865 | 11163 ft | 314 kts | 103° |
| 2026-04-23 11:29 | 50.68534 | 5.28145 | 11042 ft | 303 kts | 103° |
| 2026-04-23 11:29 | 50.68010 | 5.31306 | 10919 ft | 293 kts | 103° |
| 2026-04-23 11:29 | 50.67439 | 5.34346 | 10730 ft | 287 kts | 112° |
| 2026-04-23 11:30 | 50.66295 | 5.36902 | 10470 ft | 287 kts | 130° |
| 2026-04-23 11:30 | 50.64894 | 5.39145 | 10158 ft | 287 kts | 133° |
| 2026-04-23 11:30 | 50.63476 | 5.41351 | 9822 ft | 285 kts | 133° |
| 2026-04-23 11:30 | 50.62061 | 5.43538 | 9473 ft | 284 kts | 133° |
| 2026-04-23 11:31 | 50.60656 | 5.45709 | 9157 ft | 283 kts | 133° |
| 2026-04-23 11:31 | 50.59257 | 5.47875 | 8832 ft | 281 kts | 134° |
| 2026-04-23 11:31 | 50.57657 | 5.49631 | 8527 ft | 284 kts | 156° |
| 2026-04-23 11:31 | 50.55713 | 5.50103 | 8213 ft | 287 kts | 184° |
| 2026-04-23 11:32 | 50.53829 | 5.49151 | 7903 ft | 287 kts | 211° |
| 2026-04-23 11:32 | 50.52267 | 5.47188 | 7562 ft | 288 kts | 222° |
| 2026-04-23 11:32 | 50.50815 | 5.45065 | 7430 ft | 280 kts | 223° |
| 2026-04-23 11:32 | 50.49447 | 5.43011 | 7301 ft | 264 kts | 223° |
| 2026-04-23 11:33 | 50.48164 | 5.41079 | 7149 ft | 248 kts | 223° |
| 2026-04-23 11:33 | 50.46946 | 5.39250 | 6818 ft | 243 kts | 223° |
| 2026-04-23 11:33 | 50.45719 | 5.37410 | 6406 ft | 239 kts | 223° |
| 2026-04-23 11:33 | 50.44601 | 5.35485 | 5947 ft | 238 kts | 237° |
| 2026-04-23 11:34 | 50.43925 | 5.33177 | 5528 ft | 236 kts | 257° |
| 2026-04-23 11:34 | 50.43732 | 5.30692 | 5344 ft | 222 kts | 274° |
| 2026-04-23 11:34 | 50.43966 | 5.28341 | 5029 ft | 215 kts | 290° |
| 2026-04-23 11:34 | 50.44579 | 5.26235 | 4641 ft | 210 kts | 307° |
| 2026-04-23 11:35 | 50.45499 | 5.24507 | 4300 ft | 205 kts | 320° |
| 2026-04-23 11:35 | 50.46513 | 5.22924 | 3960 ft | 205 kts | 319° |
| 2026-04-23 11:35 | 50.47644 | 5.21630 | 3735 ft | 198 kts | 347° |
| 2026-04-23 11:35 | 50.48957 | 5.21589 | 3464 ft | 188 kts | 23° |
| 2026-04-23 11:36 | 50.50009 | 5.22741 | 3283 ft | 186 kts | 45° |
| 2026-04-23 11:36 | 50.50915 | 5.24170 | 3097 ft | 184 kts | 46° |
| 2026-04-23 11:36 | 50.51825 | 5.25605 | 2995 ft | 186 kts | 46° |
| 2026-04-23 11:36 | 50.52739 | 5.27044 | 2987 ft | 186 kts | 46° |
| 2026-04-23 11:37 | 50.53659 | 5.28493 | 3001 ft | 186 kts | 46° |
| 2026-04-23 11:37 | 50.54541 | 5.29881 | 2940 ft | 173 kts | 45° |
| 2026-04-23 11:37 | 50.55360 | 5.31171 | 2773 ft | 161 kts | 45° |
| 2026-04-23 11:37 | 50.56134 | 5.32392 | 2551 ft | 154 kts | 45° |
| 2026-04-23 11:38 | 50.56866 | 5.33545 | 2355 ft | 146 kts | 45° |
| 2026-04-23 11:38 | 50.57575 | 5.34664 | 2184 ft | 144 kts | 44° |
| 2026-04-23 11:38 | 50.58266 | 5.35755 | 2003 ft | 139 kts | 44° |
| 2026-04-23 11:38 | 50.58941 | 5.36821 | 1829 ft | 135 kts | 44° |
| 2026-04-23 11:39 | 50.59592 | 5.37848 | 1629 ft | 133 kts | 44° |
| 2026-04-23 11:39 | 50.60245 | 5.38880 | 1447 ft | 133 kts | 44° |
| 2026-04-23 11:39 | 50.60899 | 5.39914 | 1273 ft | 131 kts | 44° |
| 2026-04-23 11:39 | 50.61545 | 5.40936 | 1080 ft | 133 kts | 44° |
| 2026-04-23 11:40 | 50.62191 | 5.41960 | 887 ft | 133 kts | 44° |
| 2026-04-23 11:40 | 50.62842 | 5.42990 | 718 ft | 133 kts | 43° |
| 2026-04-23 11:40 | 50.63475 | 5.43988 | 635 ft | 115 kts | 45° |
| 2026-04-23 11:40 | 50.63868 | 5.44610 | 628 ft | 60 kts | 45° |
| 2026-04-23 11:41 | 50.64113 | 5.45000 | 621 ft | 44 kts | 45° |
| 2026-04-23 11:41 | 50.64315 | 5.45319 | 613 ft | 31 kts | 46° |
| 2026-04-23 11:41 | 50.64395 | 5.45474 | 618 ft | 13 kts | 71° |
| 2026-04-23 11:41 | 50.64394 | 5.45614 | 607 ft | 14 kts | 95° |
| 2026-04-23 11:42 | 50.64386 | 5.45744 | 605 ft | 10 kts | 95° |
| 2026-04-23 11:42 | 50.64411 | 5.45855 | 604 ft | 12 kts | 41° |
| 2026-04-23 11:42 | 50.64443 | 5.45923 | 603 ft | 8 kts | 114° |
| 2026-04-23 11:42 | 50.64411 | 5.45967 | 602 ft | 4 kts | 148° |
| 2026-04-23 11:43 | 50.64395 | 5.45988 | 602 ft | 0 kts | 134° |